Time;durP1;ratioP1;P1;durP2;ratioP2;P2;SDS_P1;SDS_P2;PMS_P1;PMS_P2;Temp;Humidity;BMP_temperature;BMP_pressure;BME280_temperature;BME280_humidity;BME280_pressure;Samples;Min_cycle;Max_cycle;Signal;HPM_P1;HPM_P2
2022/10/16 00:01:56;;;;;;;0.63;0.60;;;;;;;17.85;56.95;93468.91;5042840;28;19920;-91
2022/10/16 00:07:43;;;;;;;0.65;0.60;;;;;;;17.84;56.98;93462.69;5076895;28;20133;-90
2022/10/16 00:13:30;;;;;;;0.40;0.40;;;;;;;17.84;56.41;93470.91;5076823;28;20040;-90
2022/10/16 00:19:17;;;;;;;0.95;0.50;;;;;;;17.84;56.27;93470.91;5076477;28;20043;-91
2022/10/16 00:25:04;;;;;;;0.75;0.50;;;;;;;17.86;56.37;93473.13;5076187;28;20086;-90
2022/10/16 00:30:52;;;;;;;0.43;0.40;;;;;;;17.84;56.66;93473.63;5076427;28;20086;-90
2022/10/16 00:36:38;;;;;;;0.40;0.40;;;;;;;17.84;56.28;93470.91;5077113;28;20047;-91
2022/10/16 00:42:25;;;;;;;0.30;0.30;;;;;;;17.86;56.32;93482.06;5076105;28;20044;-90
2022/10/16 00:48:13;;;;;;;0.45;0.40;;;;;;;17.83;56.83;93482.34;5076035;28;20071;-90
2022/10/16 00:54:01;;;;;;;0.50;0.38;;;;;;;17.85;56.41;93471.63;5076326;28;20106;-90
2022/10/16 00:59:48;;;;;;;0.40;0.40;;;;;;;17.85;56.35;93474.38;5075528;28;20051;-89
2022/10/16 01:02:14;;;;;;;0.40;0.40;;;;;;;17.83;56.56;93480.34;5024267;28;20442;-90
2022/10/16 01:08:18;;;;;;;0.75;0.50;;;;;;;17.84;56.67;93483.81;5075484;28;20144;-90
2022/10/16 01:14:11;;;;;;;0.50;0.50;;;;;;;17.83;56.70;93488.56;5075817;28;20044;-90
2022/10/16 01:20:19;;;;;;;0.65;0.50;;;;;;;17.83;56.61;93472.13;5075838;28;20154;-90
2022/10/16 01:26:44;;;;;;;0.38;0.38;;;;;;;17.81;56.33;93493.78;5076093;28;20051;-90
2022/10/16 01:32:40;;;;;;;0.60;0.50;;;;;;;17.83;56.17;93487.81;5075447;28;20043;-90
2022/10/16 01:38:33;;;;;;;0.70;0.43;;;;;;;17.82;56.67;93484.31;5075358;28;20051;-90
2022/10/16 01:44:22;;;;;;;0.40;0.40;;;;;;;17.82;56.41;93495.25;5074686;28;20132;-90
2022/10/16 01:50:09;;;;;;;0.40;0.40;;;;;;;17.84;56.18;93497.50;5074752;28;20043;-90
2022/10/16 01:55:56;;;;;;;0.40;0.40;;;;;;;17.85;56.64;93499.72;5074500;28;20145;-90
2022/10/16 02:01:58;;;;;;;0.30;0.30;;;;;;;17.84;56.30;93511.16;5053799;28;20100;-90
2022/10/16 02:04:27;;;;;;;0.47;0.40;;;;;;;17.82;56.38;93503.47;5004050;28;20403;-91
2022/10/16 02:10:15;;;;;;;0.40;0.40;;;;;;;17.81;56.35;93505.47;5053277;28;20040;-90
2022/10/16 02:16:02;;;;;;;0.20;0.20;;;;;;;17.82;56.60;93503.47;5054142;28;20044;-90
2022/10/16 02:21:58;;;;;;;0.40;0.30;;;;;;;17.82;56.51;93514.41;5054728;28;20098;-90
2022/10/16 02:27:53;;;;;;;0.30;0.30;;;;;;;17.79;56.22;93510.69;5054950;28;20090;-91
2022/10/16 02:33:49;;;;;;;0.30;0.30;;;;;;;17.81;56.28;93510.19;5054450;28;20044;-90
2022/10/16 02:39:36;;;;;;;0.30;0.30;;;;;;;17.80;56.49;93503.22;5053882;28;20040;-90
2022/10/16 02:45:23;;;;;;;0.30;0.30;;;;;;;17.80;56.50;93522.38;5053789;28;20082;-90
2022/10/16 02:51:10;;;;;;;0.30;0.30;;;;;;;17.83;56.08;93526.09;5053486;28;20090;-90
2022/10/16 02:56:57;;;;;;;0.20;0.20;;;;;;;17.81;56.48;93532.81;5053903;28;20446;-90
2022/10/16 03:00:14;;;;;;;0.30;0.20;;;;;;;17.80;56.16;93544.25;5020591;28;20029;-90
2022/10/16 03:02:43;;;;;;;0.35;0.30;;;;;;;17.81;56.15;93554.69;5035245;28;20052;-90
2022/10/16 03:05:08;;;;;;;0.30;0.30;;;;;;;17.83;56.42;93537.03;5020099;28;20049;-90
2022/10/16 03:07:34;;;;;;;0.65;0.40;;;;;;;17.80;56.28;93547.72;5003401;28;20048;-90
2022/10/16 03:10:02;;;;;;;0.30;0.30;;;;;;;17.83;56.13;93550.69;5003661;28;20458;-90
2022/10/16 03:15:49;;;;;;;0.40;0.40;;;;;;;17.83;56.43;93561.63;5054115;28;20505;-90
2022/10/16 03:21:36;;;;;;;0.32;0.30;;;;;;;17.82;56.34;93563.63;5053201;28;20060;-90
2022/10/16 03:27:23;;;;;;;0.30;0.30;;;;;;;17.79;56.41;93561.91;5053172;28;20550;-90
2022/10/16 03:33:11;;;;;;;0.40;0.30;;;;;;;17.79;56.69;93557.16;5053255;28;20106;-90
2022/10/16 03:38:58;;;;;;;0.30;0.30;;;;;;;17.85;56.17;93559.16;5053329;28;20453;-90
2022/10/16 03:44:45;;;;;;;0.40;0.40;;;;;;;17.80;56.22;93552.44;5053233;28;20048;-90
2022/10/16 03:50:32;;;;;;;0.20;0.20;;;;;;;17.82;56.21;93552.69;5053167;28;20075;-90
2022/10/16 03:56:19;;;;;;;0.22;0.22;;;;;;;17.80;56.32;93557.91;5052592;28;20052;-90
2022/10/16 04:02:06;;;;;;;0.30;0.22;;;;;;;17.79;56.18;93559.91;5069183;28;20083;-90
2022/10/16 04:04:32;;;;;;;0.30;0.30;;;;;;;17.79;56.26;93573.56;5039271;28;20033;-90
2022/10/16 04:10:19;;;;;;;0.20;0.20;;;;;;;17.78;56.89;93574.81;5072888;28;20086;-91
2022/10/16 04:16:06;;;;;;;0.30;0.25;;;;;;;17.83;56.07;93575.31;5072777;28;20591;-91
2022/10/16 04:21:53;;;;;;;0.82;0.60;;;;;;;17.77;56.23;93569.84;5073301;28;20110;-90
2022/10/16 04:27:40;;;;;;;0.30;0.30;;;;;;;17.78;56.40;93577.56;5073176;28;20505;-90
2022/10/16 04:33:27;;;;;;;0.28;0.28;;;;;;;17.81;55.77;93589.47;5074747;28;20063;-90
2022/10/16 04:39:14;;;;;;;0.30;0.30;;;;;;;17.77;56.36;93554.19;5076279;28;20052;-90
2022/10/16 04:45:01;;;;;;;0.20;0.20;;;;;;;17.79;55.81;93586.50;5076471;28;20395;-90
2022/10/16 04:50:48;;;;;;;0.30;0.30;;;;;;;17.77;56.06;93592.47;5076073;28;20047;-90
2022/10/16 04:56:42;;;;;;;0.45;0.32;;;;;;;17.79;56.23;93583.78;5076549;28;20402;-90
2022/10/16 05:02:29;;;;;;;0.30;0.30;;;;;;;17.78;55.90;93610.38;5075177;28;20040;-91
2022/10/16 05:04:55;;;;;;;0.30;0.30;;;;;;;17.76;56.44;93601.91;5024964;28;20407;-90
2022/10/16 05:10:42;;;;;;;0.22;0.22;;;;;;;17.77;56.43;93589.75;5075762;28;20089;-91
2022/10/16 05:16:30;;;;;;;0.35;0.28;;;;;;;17.76;56.25;93604.66;5075425;28;20047;-90
2022/10/16 05:22:17;;;;;;;0.30;0.30;;;;;;;17.75;56.22;93611.38;5075284;28;20094;-90
2022/10/16 05:28:04;;;;;;;0.20;0.20;;;;;;;17.76;56.26;93612.84;5075248;28;20414;-90
2022/10/16 05:33:51;;;;;;;0.40;0.30;;;;;;;17.76;56.00;93615.59;5075835;28;20098;-90
2022/10/16 05:39:38;;;;;;;0.50;0.40;;;;;;;17.76;56.51;93628.53;5076221;28;20047;-90
2022/10/16 05:45:25;;;;;;;0.75;0.38;;;;;;;17.78;56.49;93639.69;5073878;28;20048;-90
2022/10/16 05:51:14;;;;;;;0.50;0.50;;;;;;;17.76;55.92;93636.72;5074601;28;20548;-91
2022/10/16 05:57:01;;;;;;;0.43;0.40;;;;;;;17.77;56.20;93646.41;5074958;28;20075;-90
2022/10/16 06:02:48;;;;;;;0.30;0.30;;;;;;;17.79;55.75;93650.13;5073928;28;20090;-90
2022/10/16 06:05:14;;;;;;;0.55;0.30;;;;;;;17.80;56.00;93640.69;5023762;28;20040;-90
2022/10/16 06:11:02;;;;;;;0.40;0.40;;;;;;;17.82;55.88;93648.41;5074721;28;20583;-90
2022/10/16 06:16:49;;;;;;;0.20;0.20;;;;;;;17.81;56.02;93657.84;5074433;28;20120;-90
2022/10/16 06:22:36;;;;;;;0.40;0.22;;;;;;;17.84;55.75;93659.59;5074642;28;20513;-89
2022/10/16 06:28:24;;;;;;;0.20;0.20;;;;;;;17.88;55.71;93660.06;5074197;28;20059;-91
2022/10/16 06:34:11;;;;;;;0.40;0.40;;;;;;;17.91;55.47;93674.75;5074519;28;20098;-90
2022/10/16 06:39:59;;;;;;;0.30;0.30;;;;;;;17.91;55.51;93680.97;5074566;28;20406;-90
2022/10/16 06:45:53;;;;;;;0.20;0.20;;;;;;;17.92;55.60;93684.44;5074396;28;20552;-90
2022/10/16 06:51:41;;;;;;;0.20;0.20;;;;;;;17.95;55.39;93692.38;5075110;28;20044;-90
2022/10/16 06:57:28;;;;;;;;;;;;;;;18.00;55.51;93699.81;5075024;28;20043;-91
2022/10/16 07:03:15;;;;;;;0.20;0.20;;;;;;;18.01;55.36;93692.34;5073580;28;20481;-90
2022/10/16 07:05:41;;;;;;;0.35;0.25;;;;;;;18.03;55.53;93689.88;5040997;28;20048;-90
2022/10/16 07:11:28;;;;;;;0.35;0.35;;;;;;;18.03;55.61;93700.81;5074881;28;20445;-90
2022/10/16 07:17:15;;;;;;;0.20;0.20;;;;;;;18.04;55.58;93692.09;5073494;28;20052;-90
2022/10/16 07:23:02;;;;;;;0.82;0.38;;;;;;;18.04;55.52;93707.78;5074590;28;20043;-91
2022/10/16 07:28:49;;;;;;;0.35;0.30;;;;;;;18.04;55.68;93719.47;5074656;28;20047;-90
2022/10/16 07:34:36;;;;;;;0.30;0.30;;;;;;;18.07;55.52;93734.13;5074364;28;20182;-91
2022/10/16 07:40:23;;;;;;;0.20;0.20;;;;;;;18.04;55.70;93738.59;5072758;28;20039;-91
2022/10/16 07:46:10;;;;;;;0.47;0.20;;;;;;;18.05;55.77;93745.56;5073025;28;20051;-91
2022/10/16 07:51:57;;;;;;;0.30;0.20;;;;;;;18.07;55.78;93739.59;5073373;28;20051;-91
2022/10/16 07:57:44;;;;;;;0.20;0.20;;;;;;;18.08;55.70;93749.31;5073712;28;20453;-91
2022/10/16 08:03:31;;;;;;;0.30;0.20;;;;;;;18.10;55.79;93755.03;5072746;28;20101;-91
2022/10/16 08:05:57;;;;;;;0.22;0.20;;;;;;;18.08;55.54;93749.31;5023020;28;20487;-91
2022/10/16 08:11:44;;;;;;;0.28;0.20;;;;;;;18.09;55.64;93750.78;5077158;28;20047;-91
2022/10/16 08:17:31;;;;;;;0.10;0.10;;;;;;;18.14;55.37;93753.53;5076954;28;20071;-91
2022/10/16 08:23:18;;;;;;;0.20;0.20;;;;;;;18.14;55.56;93750.78;5076791;28;20044;-90
2022/10/16 08:29:05;;;;;;;0.25;0.25;;;;;;;18.15;55.56;93757.75;5076260;28;20090;-90
2022/10/16 08:34:52;;;;;;;0.20;0.20;;;;;;;18.15;55.42;93748.81;5076727;28;20047;-91
2022/10/16 08:40:41;;;;;;;0.20;0.20;;;;;;;18.15;55.72;93752.28;5076930;28;20043;-91
2022/10/16 08:46:32;;;;;;;0.10;0.10;;;;;;;18.17;55.38;93756.50;5076181;28;20522;-91
2022/10/16 08:52:19;;;;;;;0.20;0.20;;;;;;;18.14;55.51;93767.22;5076329;28;20108;-91
2022/10/16 08:58:14;;;;;;;0.25;0.20;;;;;;;18.15;55.46;93771.44;5076005;28;20086;-91
2022/10/16 09:04:35;;;;;;;0.30;0.28;;;;;;;18.14;55.65;93780.88;5075064;28;20052;-91
2022/10/16 09:07:22;;;;;;;0.20;0.20;;;;;;;18.15;55.72;93784.38;5041387;28;20079;-91
2022/10/16 09:13:20;;;;;;;0.20;0.20;;;;;;;18.14;55.94;93788.34;5075601;28;20132;-91
2022/10/16 09:19:19;;;;;;;0.20;0.20;;;;;;;18.14;56.03;93794.56;5075603;28;20452;-91
2022/10/16 09:25:17;;;;;;;0.30;0.30;;;;;;;18.13;55.59;93801.28;5075290;28;20043;-91
2022/10/16 09:31:04;;;;;;;0.93;0.20;;;;;;;18.14;55.53;93808.25;5075352;28;20505;-91
2022/10/16 09:36:52;;;;;;;0.15;0.15;;;;;;;18.15;55.95;93806.25;5075443;28;20050;-90
2022/10/16 09:42:39;;;;;;;0.20;0.20;;;;;;;18.17;55.70;93816.69;5075566;28;20040;-91
2022/10/16 09:48:30;;;;;;;0.20;0.20;;;;;;;18.17;56.05;93806.50;5075548;28;20414;-90
2022/10/16 09:54:18;;;;;;;0.20;0.20;;;;;;;18.17;55.67;93817.44;5075198;28;20056;-91
2022/10/16 10:00:08;;;;;;;0.40;0.40;;;;;;;18.15;55.56;93828.88;5075130;28;20110;-91
2022/10/16 10:05:56;;;;;;;0.10;0.10;;;;;;;18.17;56.03;93820.19;5072957;28;20090;-91
2022/10/16 10:08:21;;;;;;;0.30;0.30;;;;;;;18.17;55.83;93816.69;5023311;28;20041;-90
2022/10/16 10:14:28;;;;;;;0.30;0.30;;;;;;;18.17;56.03;93819.44;5074209;28;20509;-91
2022/10/16 10:20:31;;;;;;;0.20;0.20;;;;;;;18.15;55.78;93822.69;5074382;28;20075;-91
2022/10/16 10:26:20;;;;;;;0.47;0.40;;;;;;;18.15;55.98;93823.41;5074336;28;20044;-91
2022/10/16 10:32:17;;;;;;;0.20;0.20;;;;;;;18.15;55.98;93817.19;5073401;28;20043;-91
2022/10/16 10:38:06;;;;;;;0.10;0.10;;;;;;;18.16;55.70;93813.22;5073824;28;20107;-91
2022/10/16 10:44:00;;;;;;;0.20;0.20;;;;;;;18.17;55.48;93819.44;5074332;28;20094;-90
2022/10/16 10:50:24;;;;;;;0.20;0.10;;;;;;;18.15;55.75;93807.00;5073991;28;20039;-91
2022/10/16 10:56:25;;;;;;;1.30;0.20;;;;;;;18.17;55.81;93813.97;5073750;28;20514;-91
2022/10/16 11:02:21;;;;;;;0.35;0.28;;;;;;;18.15;56.09;93807.00;5073434;28;20137;-91
2022/10/16 11:08:28;;;;;;;0.20;0.20;;;;;;;18.16;55.85;93807.75;5072327;28;20051;-90
2022/10/16 11:10:53;;;;;;;0.20;0.20;;;;;;;18.16;55.90;93813.22;5023590;28;20625;-91
2022/10/16 11:13:35;;;;;;;0.30;0.30;;;;;;;18.16;56.27;93807.75;5055414;28;20062;-91
2022/10/16 11:19:39;;;;;;;0.15;0.15;;;;;;;18.17;55.83;93822.19;5073276;28;20566;-91
2022/10/16 11:25:29;;;;;;;0.20;0.20;;;;;;;18.18;55.80;93810.00;5073576;28;20058;-91
2022/10/16 11:31:41;;;;;;;0.20;0.10;;;;;;;18.16;56.00;93813.22;5073242;28;20052;-90
2022/10/16 11:37:31;;;;;;;0.20;0.20;;;;;;;18.19;56.07;93808.75;5073493;28;20063;-91
2022/10/16 11:43:26;;;;;;;0.20;0.20;;;;;;;18.18;55.91;93810.00;5076692;28;20090;-91
2022/10/16 11:49:15;;;;;;;0.10;0.10;;;;;;;18.18;55.97;93797.06;5076989;28;20052;-90
2022/10/16 11:55:15;;;;;;;0.22;0.20;;;;;;;18.20;55.84;93804.75;5077937;28;20075;-90
2022/10/16 12:01:02;;;;;;;0.10;0.10;;;;;;;18.21;56.27;93806.22;5076974;28;20044;-91
2022/10/16 12:07:07;;;;;;;0.10;0.10;;;;;;;18.20;55.92;93804.75;5077359;28;20098;-91
2022/10/16 12:12:54;;;;;;;0.30;0.30;;;;;;;18.21;56.21;93800.75;5077062;28;20050;-91
2022/10/16 12:18:42;;;;;;;0.20;0.20;;;;;;;18.22;56.09;93799.50;5076918;28;20528;-91
2022/10/16 12:24:36;;;;;;;0.20;0.20;;;;;;;18.21;56.09;93796.03;5076893;28;20043;-90
2022/10/16 12:30:24;;;;;;;0.20;0.20;;;;;;;18.23;56.12;93803.75;5076456;28;20521;-90
2022/10/16 12:36:26;;;;;;;0.10;0.10;;;;;;;18.21;56.01;93782.34;5076682;28;20043;-90
2022/10/16 12:42:19;;;;;;;0.13;0.13;;;;;;;18.24;55.72;93803.25;5076545;28;20421;-91
2022/10/16 12:48:19;;;;;;;0.13;0.13;;;;;;;18.23;56.03;93812.69;5076579;28;20064;-90
2022/10/16 12:54:16;;;;;;;0.13;0.10;;;;;;;18.23;56.14;93807.22;5075326;28;20067;-90
2022/10/16 13:00:43;;;;;;;0.13;0.13;;;;;;;18.23;55.77;93815.44;5076056;28;20048;-90
2022/10/16 13:06:33;;;;;;;;;;;;;;;18.25;55.93;93810.22;5076377;28;20410;-91
2022/10/16 13:12:47;;;;;;;0.10;0.10;;;;;;;18.23;56.00;93812.69;5075696;28;20047;-90
2022/10/16 13:18:43;;;;;;;0.10;0.10;;;;;;;18.24;56.17;93805.97;5075967;28;20579;-90
2022/10/16 13:24:48;;;;;;;0.25;0.25;;;;;;;18.27;56.00;93809.72;5076212;28;20124;-90
2022/10/16 13:30:40;;;;;;;0.10;0.10;;;;;;;18.27;55.84;93801.50;5075860;28;20559;-90
2022/10/16 13:36:27;;;;;;;;;;;;;;;18.27;55.95;93815.19;5075810;28;20039;-91
2022/10/16 13:42:17;;;;;;;0.45;0.20;;;;;;;18.28;55.97;93822.91;5076023;28;20150;-90
2022/10/16 13:48:05;;;;;;;0.10;0.10;;;;;;;18.29;56.00;93820.91;5075149;28;20506;-90
2022/10/16 13:53:53;;;;;;;0.10;0.10;;;;;;;18.30;56.12;93834.09;5075545;28;20174;-90
2022/10/16 13:59:41;;;;;;;0.10;0.10;;;;;;;18.32;56.03;93828.13;5075267;28;20055;-91
2022/10/16 14:05:28;;;;;;;0.10;0.10;;;;;;;18.32;56.14;93836.34;5073875;28;20563;-91
2022/10/16 14:07:53;;;;;;;0.52;0.30;;;;;;;18.35;56.02;93843.53;5055447;28;20040;-90
2022/10/16 14:13:44;;;;;;;0.17;0.10;;;;;;;18.34;55.42;93844.78;5075080;28;20043;-90
2022/10/16 14:19:31;;;;;;;0.10;0.10;;;;;;;18.35;56.46;93847.03;5074572;28;20059;-90
2022/10/16 14:25:18;;;;;;;0.10;0.10;;;;;;;18.36;56.05;93856.00;5074431;28;20060;-91
2022/10/16 14:28:13;;;;;;;0.10;0.10;;;;;;;18.33;55.88;93859.72;5128324;27;197266;-91
2022/10/16 14:30:55;;;;;;;0.20;0.20;;;;;;;18.35;55.93;93860.72;5117568;28;20189;-90
2022/10/16 14:36:42;;;;;;;0.55;0.10;;;;;;;18.37;56.16;93862.97;5111950;28;20089;-91
2022/10/16 14:42:29;;;;;;;0.10;0.10;;;;;;;18.37;56.20;93868.44;5119453;27;20043;-90
2022/10/16 14:48:17;;;;;;;0.10;0.10;;;;;;;18.39;55.83;93868.69;5113444;27;20535;-90
2022/10/16 14:54:03;;;;;;;0.13;0.13;;;;;;;18.39;56.10;93865.94;5111335;27;20062;-90
2022/10/16 14:59:53;;;;;;;0.10;0.10;;;;;;;18.39;55.76;93871.41;5132045;27;20055;-90
2022/10/16 15:05:40;;;;;;;1.17;0.10;;;;;;;18.40;55.98;93868.16;5110716;28;20101;-89
2022/10/16 15:11:27;;;;;;;0.10;0.10;;;;;;;18.40;55.75;93854.47;5122530;27;20042;-90
2022/10/16 15:17:14;;;;;;;0.10;0.10;;;;;;;18.41;55.79;93864.16;5112651;27;20043;-90
2022/10/16 15:23:09;;;;;;;0.10;0.10;;;;;;;18.43;56.22;93853.47;5131672;27;20081;-90
2022/10/16 15:26:25;;;;;;;0.10;0.10;;;;;;;18.40;56.14;93864.69;5097015;28;20058;-90
2022/10/16 15:28:50;;;;;;;0.10;0.10;;;;;;;18.42;55.76;93860.19;5129519;28;20031;-90
2022/10/16 15:31:16;;;;;;;0.40;0.20;;;;;;;18.42;56.14;93867.66;5078559;27;20052;-90
2022/10/16 15:33:41;;;;;;;0.30;0.20;;;;;;;18.43;55.96;93855.47;5092698;28;20410;-90
2022/10/16 15:39:28;;;;;;;0.10;0.10;;;;;;;18.42;55.87;93871.13;5096659;28;20116;-90
2022/10/16 15:45:15;;;;;;;0.20;0.20;;;;;;;18.42;55.98;93875.88;5098538;28;20060;-90
2022/10/16 15:51:05;;;;;;;2.08;0.20;;;;;;;18.42;56.07;93875.88;5116548;28;20051;-89
2022/10/16 15:56:52;;;;;;;0.17;0.17;;;;;;;18.42;56.49;93873.88;5116756;28;20050;-90
2022/10/16 16:02:39;;;;;;;0.13;0.13;;;;;;;18.40;56.19;93884.56;5103535;28;20063;-90
2022/10/16 16:08:26;;;;;;;0.10;0.10;;;;;;;18.38;56.28;93881.63;5116781;27;20120;-90
2022/10/16 16:14:13;;;;;;;0.10;0.10;;;;;;;18.41;56.43;93888.81;5097610;28;20101;-90
2022/10/16 16:20:01;;;;;;;0.20;0.20;;;;;;;18.40;56.27;93886.59;5116935;28;20042;-90
2022/10/16 16:26:07;;;;;;;0.20;0.20;;;;;;;18.37;56.35;93907.50;5116805;28;20101;-90
2022/10/16 16:28:33;;;;;;;0.38;0.28;;;;;;;18.38;56.43;93895.31;5078223;28;20040;-90
2022/10/16 16:34:20;;;;;;;0.35;0.20;;;;;;;18.37;56.64;93902.03;5098093;28;20055;-90
2022/10/16 16:40:07;;;;;;;0.20;0.20;;;;;;;18.38;56.64;93919.94;5113339;28;20047;-90
2022/10/16 16:45:54;;;;;;;0.50;0.30;;;;;;;18.37;56.79;93932.13;5113613;28;20516;-91
2022/10/16 16:51:41;;;;;;;0.13;0.13;;;;;;;18.36;56.42;93938.84;5113988;28;20508;-91
2022/10/16 16:57:27;;;;;;;0.28;0.20;;;;;;;18.36;56.68;93946.31;5113705;28;20156;-90
2022/10/16 17:03:14;;;;;;;0.28;0.25;;;;;;;18.35;56.78;93953.78;5113286;28;20127;-90
2022/10/16 17:09:02;;;;;;;0.32;0.20;;;;;;;18.35;57.04;93958.50;5099042;28;20062;-90
2022/10/16 17:14:50;;;;;;;0.30;0.30;;;;;;;18.35;56.71;93967.47;5095478;28;20043;-90
2022/10/16 17:20:36;;;;;;;;;;;;;;;18.34;56.70;93976.91;5102708;28;20094;-91
2022/10/16 17:26:23;;;;;;;0.47;0.40;;;;;;;18.32;56.80;93976.66;5096825;28;20043;-90
2022/10/16 17:28:53;;;;;;;1.10;0.50;;;;;;;18.34;56.79;93984.38;5065428;28;20036;-90
2022/10/16 17:34:40;;;;;;;0.65;0.47;;;;;;;18.32;57.05;93987.59;5095414;28;20123;-90
2022/10/16 17:40:27;;;;;;;0.45;0.40;;;;;;;18.31;57.04;93990.84;5115068;28;20389;-90
2022/10/16 17:46:15;;;;;;;0.38;0.30;;;;;;;18.31;57.04;93990.84;5112253;27;20451;-90
2022/10/16 17:52:02;;;;;;;0.85;0.60;;;;;;;18.32;56.70;93995.06;5094318;28;20051;-88
2022/10/16 17:57:52;;;;;;;0.40;0.40;;;;;;;18.32;56.90;94003.28;5114940;28;20046;-90
2022/10/16 18:03:39;;;;;;;0.28;0.28;;;;;;;18.30;57.39;94020.19;5094170;28;20413;-90
2022/10/16 18:09:25;;;;;;;0.47;0.30;;;;;;;18.30;56.61;94005.75;5105545;28;20104;-90
2022/10/16 18:15:13;;;;;;;0.35;0.35;;;;;;;18.30;56.59;94014.72;5095363;28;20047;-91
2022/10/16 18:21:01;;;;;;;0.22;0.22;;;;;;;18.30;56.73;94033.13;5114356;28;20081;-90
2022/10/16 18:26:49;;;;;;;0.30;0.20;;;;;;;18.32;56.86;94030.66;5094277;28;20059;-90
2022/10/16 18:29:14;;;;;;;1.38;0.40;;;;;;;18.30;56.90;94027.66;5094149;28;20032;-90
2022/10/16 18:35:01;;;;;;;0.22;0.22;;;;;;;18.31;56.82;94031.91;5114597;28;20103;-90
2022/10/16 18:40:49;;;;;;;0.90;0.50;;;;;;;18.29;57.17;94037.13;5114393;28;20421;-90
2022/10/16 18:46:35;;;;;;;0.20;0.20;;;;;;;18.29;56.78;94040.59;5100378;28;20085;-90
2022/10/16 18:52:25;;;;;;;0.20;0.20;;;;;;;18.30;57.08;94047.56;5096583;28;20543;-89
2022/10/16 18:58:13;;;;;;;0.43;0.40;;;;;;;18.27;56.88;94040.34;5094935;28;20047;-90
2022/10/16 19:04:03;;;;;;;0.50;0.50;;;;;;;18.28;56.76;94050.06;5114245;28;20047;-90
2022/10/16 19:09:50;;;;;;;0.50;0.40;;;;;;;18.27;56.87;94040.34;5093602;28;20422;-90
2022/10/16 19:15:41;;;;;;;0.35;0.30;;;;;;;18.25;56.69;94053.78;5097316;28;20039;-90
2022/10/16 19:21:29;;;;;;;1.30;0.47;;;;;;;18.28;57.14;94068.47;5097213;28;20085;-90
2022/10/16 19:27:16;;;;;;;0.35;0.32;;;;;;;18.26;56.92;94068.19;5115426;28;20050;-90
2022/10/16 19:33:03;;;;;;;0.35;0.30;;;;;;;18.27;56.69;94072.44;5117277;27;20046;-90
2022/10/16 19:38:59;;;;;;;0.20;0.20;;;;;;;18.26;56.89;94074.44;5117549;28;20066;-90
2022/10/16 19:44:47;;;;;;;0.60;0.40;;;;;;;18.24;56.76;94071.44;5102638;28;20050;-90
2022/10/16 19:50:34;;;;;;;0.40;0.30;;;;;;;18.24;56.89;94076.91;5096411;28;20043;-90
2022/10/16 19:56:22;;;;;;;0.65;0.43;;;;;;;18.26;57.01;94079.91;5099039;28;20105;-90
2022/10/16 20:02:09;;;;;;;0.40;0.40;;;;;;;18.26;57.01;94085.38;5097413;28;20047;-90
2022/10/16 20:07:56;;;;;;;0.25;0.25;;;;;;;18.29;56.76;94091.84;5116968;27;20042;-90
2022/10/16 20:13:43;;;;;;;0.40;0.30;;;;;;;18.25;56.76;94083.88;5096056;28;20058;-90
2022/10/16 20:19:30;;;;;;;0.40;0.30;;;;;;;18.26;57.15;94084.63;5104109;28;20102;-90
2022/10/16 20:25:17;;;;;;;0.30;0.30;;;;;;;18.24;56.69;94082.38;5098323;28;20039;-90
2022/10/16 20:27:42;;;;;;;0.20;0.20;;;;;;;18.24;56.97;94093.31;5080849;28;20040;-90
2022/10/16 20:33:29;;;;;;;0.30;0.30;;;;;;;18.27;56.67;94092.34;5104238;28;20096;-90
2022/10/16 20:39:16;;;;;;;0.20;0.20;;;;;;;18.25;56.82;94102.28;5097388;27;20047;-90
2022/10/16 20:45:04;;;;;;;0.30;0.20;;;;;;;18.24;56.59;94101.53;5116409;28;20116;-90
2022/10/16 20:50:51;;;;;;;0.38;0.30;;;;;;;18.25;56.70;94107.75;5116036;28;20562;-90
2022/10/16 20:56:38;;;;;;;1.05;0.52;;;;;;;18.22;56.77;94109.47;5102139;28;20093;-90
2022/10/16 21:02:25;;;;;;;0.50;0.40;;;;;;;18.21;56.20;94102.50;5115605;28;20097;-90
2022/10/16 21:08:12;;;;;;;0.68;0.30;;;;;;;18.22;56.73;94106.75;5096545;28;20054;-90
2022/10/16 21:14:13;;;;;;;0.95;0.47;;;;;;;18.24;56.86;94126.16;5114232;28;20054;-90
2022/10/16 21:16:38;;;;;;;0.30;0.30;;;;;;;18.23;56.87;94112.97;5077265;28;20491;-90
2022/10/16 21:19:04;;;;;;;3.45;0.50;;;;;;;18.25;56.53;94113.22;5073422;28;20397;-90
2022/10/16 21:24:51;;;;;;;0.82;0.73;;;;;;;18.22;56.55;94117.69;5095030;28;20059;-90
2022/10/16 21:27:17;;;;;;;0.40;0.40;;;;;;;18.22;56.40;94116.94;5076599;28;20056;-90
2022/10/16 21:33:04;;;;;;;0.60;0.40;;;;;;;18.22;56.66;94120.44;5115065;28;20046;-90
2022/10/16 21:38:51;;;;;;;0.40;0.30;;;;;;;18.22;56.70;94125.91;5114940;27;20093;-90
2022/10/16 21:44:39;;;;;;;0.30;0.30;;;;;;;18.22;56.64;94116.94;5102007;27;20089;-90
2022/10/16 21:50:25;;;;;;;0.60;0.50;;;;;;;18.21;56.54;94118.19;5106189;28;20039;-90
2022/10/16 21:56:16;;;;;;;2.25;0.57;;;;;;;18.24;56.43;94128.91;5095630;28;20195;-90
2022/10/16 22:02:03;;;;;;;0.30;0.30;;;;;;;18.20;56.47;94136.59;5094289;28;20087;-90
2022/10/16 22:07:50;;;;;;;0.82;0.40;;;;;;;18.22;56.37;94130.63;5114775;28;20088;-90
2022/10/16 22:13:37;;;;;;;0.20;0.20;;;;;;;18.21;56.55;94137.34;5101691;28;20047;-90
2022/10/16 22:19:24;;;;;;;0.20;0.20;;;;;;;18.20;56.63;94142.06;5114261;28;20530;-90
2022/10/16 22:25:12;;;;;;;0.30;0.30;;;;;;;18.19;56.42;94137.13;5112088;28;20066;-89
2022/10/16 22:27:37;;;;;;;0.57;0.35;;;;;;;18.19;56.62;94137.13;5075611;28;20478;-90
2022/10/16 22:33:24;;;;;;;0.35;0.35;;;;;;;18.21;56.19;94131.88;5096636;28;20089;-90
2022/10/16 22:39:11;;;;;;;0.20;0.20;;;;;;;18.19;56.08;94135.09;5095170;28;20040;-91
2022/10/16 22:44:58;;;;;;;0.63;0.40;;;;;;;18.18;56.17;94124.66;5114245;28;20101;-90
2022/10/16 22:50:47;;;;;;;0.30;0.20;;;;;;;18.19;56.10;94135.09;5104014;28;20104;-90
2022/10/16 22:56:34;;;;;;;0.17;0.17;;;;;;;18.20;56.21;94124.91;5105416;28;20059;-90
2022/10/16 23:02:21;;;;;;;0.30;0.30;;;;;;;18.19;55.98;94117.97;5099769;28;20051;-90
2022/10/16 23:08:08;;;;;;;0.43;0.40;;;;;;;18.17;56.28;94121.19;5097766;28;20101;-90
2022/10/16 23:13:56;;;;;;;0.20;0.20;;;;;;;18.15;56.44;94110.72;5097450;28;20615;-90
2022/10/16 23:19:42;;;;;;;;;;;;;;;18.20;56.13;94124.91;5098130;28;20047;-90
2022/10/16 23:25:29;;;;;;;0.30;0.30;;;;;;;18.19;56.50;94121.41;5097406;28;20047;-90
2022/10/16 23:27:55;;;;;;;0.30;0.30;;;;;;;18.16;56.16;94127.91;5074703;28;20032;-90
2022/10/16 23:33:41;;;;;;;0.22;0.22;;;;;;;18.20;56.35;94127.63;5103506;28;20089;-90
2022/10/16 23:39:28;;;;;;;0.28;0.20;;;;;;;18.16;55.99;94136.09;5097079;28;20086;-90
2022/10/16 23:45:16;;;;;;;0.20;0.20;;;;;;;18.14;56.50;94127.63;5098643;28;20062;-90
2022/10/16 23:51:04;;;;;;;0.30;0.20;;;;;;;18.14;56.10;94124.91;5116615;28;20101;-90
2022/10/16 23:56:51;;;;;;;0.28;0.25;;;;;;;18.16;56.37;94125.16;5117469;28;20039;-89
